Time;durP1;ratioP1;P1;durP2;ratioP2;P2;SDS_P1;SDS_P2;PMS_P1;PMS_P2;Temp;Humidity;BMP_temperature;BMP_pressure;BME280_temperature;BME280_humidity;BME280_pressure;Samples;Min_cycle;Max_cycle;Signal;HPM_P1;HPM_P2
2021/03/09 00:00:25;;;;;;;1.95;1.17;;;23.00;43.50;;;;;;4989812;28;20038;-66
2021/03/09 00:02:51;;;;;;;2.00;1.13;;;23.00;43.50;;;;;;5006811;28;20101;-65
2021/03/09 00:05:16;;;;;;;2.30;1.35;;;23.00;43.50;;;;;;5004328;28;20414;-67
2021/03/09 00:07:42;;;;;;;1.98;1.20;;;23.00;43.60;;;;;;5005626;28;20108;-66
2021/03/09 00:10:09;;;;;;;2.90;1.20;;;23.00;43.50;;;;;;5005911;28;20026;-65
2021/03/09 00:12:34;;;;;;;1.92;1.10;;;23.00;43.60;;;;;;5006832;28;20102;-65
2021/03/09 00:15:01;;;;;;;2.13;1.30;;;23.00;44.10;;;;;;5007285;28;20057;-65
2021/03/09 00:17:26;;;;;;;2.83;1.30;;;22.90;43.60;;;;;;5005490;28;20026;-64
2021/03/09 00:19:55;;;;;;;3.05;1.30;;;22.90;43.50;;;;;;5006570;28;20037;-65
2021/03/09 00:22:21;;;;;;;2.28;1.38;;;22.90;43.50;;;;;;5006663;28;20036;-64
2021/03/09 00:24:46;;;;;;;2.47;1.23;;;22.90;43.60;;;;;;5003359;28;20461;-64
2021/03/09 00:27:12;;;;;;;1.80;1.15;;;22.90;43.60;;;;;;5005277;28;20088;-65
2021/03/09 00:29:38;;;;;;;2.45;1.50;;;22.80;43.50;;;;;;5002161;28;20037;-64
2021/03/09 00:32:08;;;;;;;1.80;1.10;;;22.80;43.50;;;;;;5004811;28;20087;-65
2021/03/09 00:34:35;;;;;;;2.35;1.10;;;22.80;43.50;;;;;;5007584;28;20368;-65
2021/03/09 00:37:01;;;;;;;2.95;1.20;;;22.80;43.50;;;;;;5004257;28;20124;-64
2021/03/09 00:39:26;;;;;;;2.42;1.40;;;22.80;43.50;;;;;;5006866;28;20779;-65
2021/03/09 00:41:52;;;;;;;2.13;1.25;;;22.80;43.50;;;;;;5006547;28;20152;-64
2021/03/09 00:44:18;;;;;;;1.73;1.10;;;22.80;43.60;;;;;;5021169;28;20038;-64
2021/03/09 00:46:43;;;;;;;2.47;1.42;;;22.80;43.60;;;;;;4999846;28;20104;-64
2021/03/09 00:49:09;;;;;;;1.90;1.20;;;22.80;43.60;;;;;;5002992;28;20037;-66
2021/03/09 00:51:35;;;;;;;2.10;1.30;;;22.70;43.50;;;;;;5004146;28;20030;-64
2021/03/09 00:54:01;;;;;;;2.03;1.33;;;22.70;43.50;;;;;;4990393;28;20026;-66
2021/03/09 00:56:26;;;;;;;2.05;1.20;;;22.70;43.60;;;;;;5008105;28;20098;-64
2021/03/09 00:58:52;;;;;;;2.47;1.30;;;22.70;43.60;;;;;;5009588;28;20022;-64
2021/03/09 01:01:17;;;;;;;1.95;1.15;;;22.70;43.60;;;;;;5000697;28;20075;-64
2021/03/09 01:03:43;;;;;;;2.13;1.20;;;22.70;43.60;;;;;;4995956;28;20046;-64
2021/03/09 01:06:09;;;;;;;1.48;1.05;;;22.70;43.60;;;;;;5009166;28;20084;-64
2021/03/09 01:08:34;;;;;;;1.67;1.10;;;22.70;43.60;;;;;;5009991;28;20030;-66
2021/03/09 01:11:00;;;;;;;1.73;1.00;;;22.70;43.60;;;;;;5010575;28;20026;-66
2021/03/09 01:13:26;;;;;;;1.65;1.10;;;22.70;43.60;;;;;;5011300;28;20168;-64
2021/03/09 01:15:51;;;;;;;1.60;1.05;;;22.60;43.60;;;;;;5007968;28;20034;-65
2021/03/09 01:18:18;;;;;;;2.08;1.20;;;22.60;43.60;;;;;;5009461;28;20042;-67
2021/03/09 01:20:44;;;;;;;2.00;1.23;;;22.60;43.60;;;;;;5009541;28;20108;-64
2021/03/09 01:23:10;;;;;;;2.08;1.20;;;22.60;43.60;;;;;;5009268;28;20062;-65
2021/03/09 01:25:35;;;;;;;3.03;1.13;;;22.60;43.60;;;;;;5010489;28;20034;-65
2021/03/09 01:28:01;;;;;;;2.38;1.38;;;22.50;43.50;;;;;;5010096;28;20021;-64
2021/03/09 01:30:26;;;;;;;2.22;1.45;;;22.60;43.60;;;;;;5008528;28;20034;-65
2021/03/09 01:32:52;;;;;;;2.70;1.27;;;22.50;43.60;;;;;;5009544;28;20029;-65
2021/03/09 01:35:18;;;;;;;1.75;1.10;;;22.50;43.60;;;;;;5009324;28;20034;-65
2021/03/09 01:37:43;;;;;;;2.45;1.10;;;22.50;43.60;;;;;;5007155;28;20030;-64
2021/03/09 01:40:11;;;;;;;2.17;1.15;;;22.50;43.60;;;;;;5008284;28;20120;-65
2021/03/09 01:42:38;;;;;;;1.75;1.10;;;22.50;43.60;;;;;;5009257;28;20217;-65
2021/03/09 01:45:05;;;;;;;1.75;1.20;;;22.40;43.50;;;;;;5009313;28;20357;-64
2021/03/09 01:47:33;;;;;;;1.90;1.05;;;22.40;43.60;;;;;;4996425;28;20033;-64
2021/03/09 01:49:59;;;;;;;2.55;1.40;;;22.40;43.60;;;;;;5003176;28;20029;-64
2021/03/09 01:52:27;;;;;;;1.95;1.10;;;22.40;43.50;;;;;;5008827;28;20034;-65
2021/03/09 01:54:52;;;;;;;1.73;1.00;;;22.40;43.60;;;;;;5009317;28;20033;-64
2021/03/09 01:57:18;;;;;;;2.17;1.10;;;22.40;43.60;;;;;;5010026;28;20088;-64
2021/03/09 01:59:44;;;;;;;1.35;0.95;;;22.40;43.60;;;;;;5009375;28;20030;-65
2021/03/09 02:02:10;;;;;;;1.75;1.10;;;22.40;43.60;;;;;;5001089;28;20515;-64
2021/03/09 02:04:36;;;;;;;2.10;1.10;;;22.40;43.60;;;;;;5004293;28;20029;-64
2021/03/09 02:07:02;;;;;;;1.80;1.20;;;22.30;43.60;;;;;;5007762;28;20548;-66
2021/03/09 02:09:29;;;;;;;1.92;1.23;;;22.30;43.50;;;;;;5007583;28;20037;-64
2021/03/09 02:12:13;;;;;;;1.65;1.15;;;22.30;43.50;;;;;;5008559;28;20034;-65
2021/03/09 02:14:56;;;;;;;1.90;1.10;;;22.30;43.50;;;;;;5007496;28;20034;-65
2021/03/09 02:17:28;;;;;;;2.03;1.08;;;22.30;43.50;;;;;;5005212;28;20037;-66
2021/03/09 02:20:37;;;;;;;2.00;1.13;;;22.30;43.60;;;;;;5008120;28;20022;-65
2021/03/09 02:23:32;;;;;;;2.05;1.05;;;22.30;43.60;;;;;;5018841;28;20472;-65
2021/03/09 02:26:06;;;;;;;1.88;1.05;;;22.30;43.60;;;;;;5009734;28;20169;-65
2021/03/09 02:28:50;;;;;;;1.85;1.10;;;22.30;43.60;;;;;;5009087;28;20037;-66
2021/03/09 02:31:17;;;;;;;1.70;1.05;;;22.30;43.60;;;;;;5007845;28;20050;-65
2021/03/09 02:33:53;;;;;;;1.60;0.98;;;22.30;43.60;;;;;;5009648;28;20038;-65
2021/03/09 02:36:23;;;;;;;1.42;1.00;;;22.20;43.50;;;;;;5004071;28;20033;-66
2021/03/09 02:38:53;;;;;;;1.80;1.10;;;22.20;43.60;;;;;;5008755;28;20424;-65
2021/03/09 02:41:21;;;;;;;1.60;1.20;;;22.20;43.60;;;;;;5008446;28;20056;-64
2021/03/09 02:43:50;;;;;;;1.90;1.10;;;22.20;43.60;;;;;;5008721;28;20041;-67
2021/03/09 02:46:17;;;;;;;2.67;1.00;;;22.20;43.60;;;;;;5005177;28;20026;-64
2021/03/09 02:48:45;;;;;;;1.75;1.00;;;22.20;43.60;;;;;;5008723;28;20076;-65
2021/03/09 02:51:11;;;;;;;1.35;0.93;;;22.20;43.60;;;;;;5000135;28;20085;-65
2021/03/09 02:53:44;;;;;;;1.65;1.00;;;22.10;43.50;;;;;;5008685;28;20086;-65
2021/03/09 02:56:11;;;;;;;1.90;1.13;;;22.10;43.50;;;;;;5008083;28;20485;-66
2021/03/09 02:58:43;;;;;;;2.15;1.35;;;22.10;43.50;;;;;;5007220;28;20030;-64
2021/03/09 03:01:10;;;;;;;2.33;1.30;;;22.10;43.50;;;;;;5006628;28;20132;-65
2021/03/09 03:03:38;;;;;;;2.13;1.10;;;22.10;43.60;;;;;;5008274;28;20029;-67
2021/03/09 03:06:05;;;;;;;2.58;1.02;;;22.10;43.60;;;;;;5006005;28;20065;-65
2021/03/09 03:08:32;;;;;;;1.65;1.00;;;22.10;43.60;;;;;;4990347;28;20038;-65
2021/03/09 03:11:00;;;;;;;1.67;0.98;;;22.10;43.60;;;;;;5006954;28;20492;-66
2021/03/09 03:13:26;;;;;;;1.52;1.00;;;22.10;43.60;;;;;;5008400;28;20022;-64
2021/03/09 03:15:54;;;;;;;1.58;0.98;;;22.10;43.60;;;;;;5007304;28;20041;-65
2021/03/09 03:18:21;;;;;;;1.75;1.00;;;22.00;43.60;;;;;;5008088;28;20099;-66
2021/03/09 03:20:48;;;;;;;1.67;1.10;;;22.00;43.50;;;;;;5020287;28;20129;-64
2021/03/09 03:23:15;;;;;;;1.90;1.10;;;22.00;43.60;;;;;;5007021;28;20054;-64
2021/03/09 03:25:46;;;;;;;2.30;1.10;;;22.00;43.60;;;;;;5001662;28;20026;-64
2021/03/09 03:28:14;;;;;;;1.75;1.10;;;22.00;43.60;;;;;;5008776;28;20116;-64
2021/03/09 03:30:39;;;;;;;1.83;1.00;;;22.00;43.60;;;;;;5007634;28;20040;-66
2021/03/09 03:33:05;;;;;;;1.70;1.00;;;22.00;43.60;;;;;;5007932;28;20026;-66
2021/03/09 03:35:31;;;;;;;2.22;1.10;;;22.00;43.60;;;;;;5008164;28;20058;-64
2021/03/09 03:37:57;;;;;;;1.42;0.93;;;22.00;43.70;;;;;;5007299;28;20037;-65
2021/03/09 03:40:23;;;;;;;1.83;1.20;;;22.00;43.60;;;;;;5005982;28;20028;-64
2021/03/09 03:42:49;;;;;;;1.50;1.00;;;22.00;43.70;;;;;;4996472;28;20686;-64
2021/03/09 03:45:18;;;;;;;1.42;1.02;;;21.90;43.60;;;;;;5006372;28;20034;-64
2021/03/09 03:47:44;;;;;;;1.30;0.90;;;22.00;43.70;;;;;;4997835;28;20084;-65
2021/03/09 03:50:13;;;;;;;1.42;0.95;;;21.90;43.60;;;;;;5003569;28;20030;-64
2021/03/09 03:52:45;;;;;;;1.85;1.25;;;21.90;43.60;;;;;;4994093;28;20034;-64
2021/03/09 03:55:21;;;;;;;1.65;1.00;;;21.90;43.60;;;;;;5000226;28;20060;-65
2021/03/09 03:57:49;;;;;;;1.35;1.00;;;21.90;43.60;;;;;;4988455;28;20030;-66
2021/03/09 04:00:21;;;;;;;1.83;1.00;;;21.90;43.70;;;;;;5001326;28;20125;-65
2021/03/09 04:02:50;;;;;;;2.10;1.05;;;21.90;43.70;;;;;;5006376;28;20357;-66
2021/03/09 04:05:16;;;;;;;2.13;1.00;;;21.90;43.70;;;;;;5000111;28;20026;-64
2021/03/09 04:07:42;;;;;;;1.83;1.10;;;21.80;43.60;;;;;;5006663;28;20034;-64
2021/03/09 04:10:08;;;;;;;1.40;1.00;;;21.90;43.70;;;;;;5002234;28;20026;-64
2021/03/09 04:12:35;;;;;;;1.40;0.90;;;21.90;43.70;;;;;;5002812;28;20030;-64
2021/03/09 04:15:04;;;;;;;1.92;1.10;;;21.90;43.70;;;;;;5007501;28;20022;-64
2021/03/09 04:17:31;;;;;;;1.48;0.90;;;21.90;43.70;;;;;;5002264;28;20127;-66
2021/03/09 04:19:58;;;;;;;1.45;1.00;;;21.80;43.70;;;;;;4991720;28;20033;-66
2021/03/09 04:22:28;;;;;;;1.60;0.90;;;21.80;43.70;;;;;;5003633;28;20076;-65
2021/03/09 04:24:55;;;;;;;1.80;0.82;;;21.80;43.70;;;;;;4998429;28;20318;-64
2021/03/09 04:27:22;;;;;;;1.58;1.10;;;21.80;43.70;;;;;;5002704;28;20033;-65
2021/03/09 04:30:00;;;;;;;1.77;0.90;;;21.80;43.70;;;;;;5006215;28;20033;-66
2021/03/09 04:32:27;;;;;;;1.52;1.00;;;21.80;43.70;;;;;;5001093;28;20030;-64
2021/03/09 04:34:54;;;;;;;1.50;1.00;;;21.80;43.70;;;;;;5006196;28;20030;-65
2021/03/09 04:37:21;;;;;;;1.58;0.93;;;21.80;43.70;;;;;;5006579;28;20456;-65
2021/03/09 04:39:47;;;;;;;1.20;0.88;;;21.70;43.60;;;;;;5005643;28;20475;-65
2021/03/09 04:42:13;;;;;;;1.25;0.90;;;21.70;43.60;;;;;;5007027;28;20018;-64
2021/03/09 04:44:39;;;;;;;2.15;1.10;;;21.80;43.70;;;;;;5002361;28;20037;-64
2021/03/09 04:47:06;;;;;;;1.23;0.95;;;21.80;43.70;;;;;;5006910;28;20437;-65
2021/03/09 04:49:34;;;;;;;1.17;0.90;;;21.70;43.60;;;;;;5006458;28;20469;-64
2021/03/09 04:52:00;;;;;;;1.52;0.90;;;21.70;43.60;;;;;;5003630;28;20026;-65
2021/03/09 04:54:26;;;;;;;1.40;1.00;;;21.80;43.70;;;;;;5005845;28;20030;-64
2021/03/09 04:56:53;;;;;;;1.30;0.82;;;21.70;43.70;;;;;;5007386;28;20038;-66
2021/03/09 04:59:18;;;;;;;1.20;0.80;;;21.70;43.70;;;;;;5005445;28;20029;-64
2021/03/09 05:01:44;;;;;;;1.15;0.88;;;21.70;43.70;;;;;;5001739;28;20110;-66
2021/03/09 05:04:10;;;;;;;1.48;0.90;;;21.70;43.70;;;;;;5001971;28;20045;-66
2021/03/09 05:06:36;;;;;;;1.77;1.00;;;21.70;43.70;;;;;;5004016;28;20033;-65
2021/03/09 05:09:03;;;;;;;1.23;0.90;;;21.70;43.70;;;;;;4999487;28;20118;-66
2021/03/09 05:11:29;;;;;;;1.23;0.90;;;21.70;43.70;;;;;;4994637;28;20030;-66
2021/03/09 05:13:56;;;;;;;1.58;1.00;;;21.70;43.70;;;;;;5002317;28;20022;-65
2021/03/09 05:16:22;;;;;;;1.50;0.98;;;21.70;43.70;;;;;;5005977;28;20045;-65
2021/03/09 05:18:48;;;;;;;1.55;0.80;;;21.70;43.70;;;;;;4999519;28;20041;-65
2021/03/09 05:21:14;;;;;;;1.50;0.90;;;21.70;43.70;;;;;;5005899;28;20061;-67
2021/03/09 05:23:39;;;;;;;1.48;1.02;;;21.70;43.80;;;;;;4999207;28;20081;-65
2021/03/09 05:26:05;;;;;;;1.35;0.90;;;21.70;43.70;;;;;;5007272;28;20169;-66
2021/03/09 05:28:31;;;;;;;1.88;1.00;;;21.70;43.80;;;;;;5003260;28;20034;-67
2021/03/09 05:30:56;;;;;;;1.88;0.93;;;21.70;43.80;;;;;;5005793;28;20030;-65
2021/03/09 05:33:22;;;;;;;1.40;0.90;;;21.70;43.80;;;;;;5006472;28;20064;-64
2021/03/09 05:35:48;;;;;;;1.30;0.90;;;21.70;43.80;;;;;;5002588;28;20469;-65
2021/03/09 05:38:13;;;;;;;1.38;0.90;;;21.70;43.80;;;;;;5003687;28;20030;-65
2021/03/09 05:40:39;;;;;;;1.20;0.80;;;21.70;43.80;;;;;;5003394;28;20804;-65
2021/03/09 05:43:05;;;;;;;1.35;0.93;;;21.70;43.80;;;;;;5003195;28;20042;-65
2021/03/09 05:45:31;;;;;;;1.60;1.05;;;21.70;43.80;;;;;;5009315;28;20030;-66
2021/03/09 05:47:58;;;;;;;1.23;0.80;;;21.70;43.80;;;;;;5008213;28;20040;-66
2021/03/09 05:50:24;;;;;;;1.15;0.90;;;21.70;43.90;;;;;;5009917;28;20021;-65
2021/03/09 05:52:50;;;;;;;1.38;0.95;;;21.70;43.90;;;;;;5009320;28;20034;-64
2021/03/09 05:55:16;;;;;;;1.25;0.82;;;21.60;43.90;;;;;;5003548;28;20041;-64
2021/03/09 05:57:42;;;;;;;1.08;0.80;;;21.60;43.90;;;;;;5009786;28;20030;-67
2021/03/09 06:00:10;;;;;;;1.05;0.85;;;21.60;43.90;;;;;;5009536;28;20348;-65
2021/03/09 06:02:36;;;;;;;1.42;0.80;;;21.60;43.90;;;;;;5003915;28;20026;-65
2021/03/09 06:05:06;;;;;;;1.13;0.80;;;21.60;43.90;;;;;;5008512;28;20032;-64
2021/03/09 06:07:33;;;;;;;1.02;0.82;;;21.60;44.00;;;;;;5008876;28;20460;-65
2021/03/09 06:09:59;;;;;;;1.75;1.05;;;21.60;44.00;;;;;;5007796;28;20033;-65
2021/03/09 06:12:25;;;;;;;1.10;0.80;;;21.60;44.00;;;;;;5008028;28;20029;-67
2021/03/09 06:14:59;;;;;;;1.80;1.00;;;21.60;44.10;;;;;;5007492;28;20079;-64
2021/03/09 06:17:39;;;;;;;1.27;0.90;;;21.60;44.10;;;;;;5006161;28;20059;-65
2021/03/09 06:20:18;;;;;;;1.38;0.85;;;21.60;44.10;;;;;;5021129;28;20038;-64
2021/03/09 06:22:46;;;;;;;1.38;0.90;;;21.60;44.10;;;;;;5007769;28;20104;-63
2021/03/09 06:25:17;;;;;;;1.50;1.00;;;21.60;44.10;;;;;;5006006;28;20034;-62
2021/03/09 06:27:43;;;;;;;1.40;0.85;;;21.60;44.10;;;;;;5007048;28;20560;-63
2021/03/09 06:30:25;;;;;;;1.58;1.00;;;21.60;44.10;;;;;;5006062;28;20029;-63
2021/03/09 06:32:51;;;;;;;1.85;0.80;;;21.60;44.10;;;;;;5009198;28;20026;-62
2021/03/09 06:35:26;;;;;;;1.42;1.00;;;21.60;44.10;;;;;;5009237;28;20081;-63
2021/03/09 06:37:52;;;;;;;1.13;0.88;;;21.50;44.10;;;;;;5003809;28;20057;-65
2021/03/09 06:40:19;;;;;;;1.50;1.10;;;21.60;44.40;;;;;;5007866;28;20034;-67
2021/03/09 06:42:45;;;;;;;1.70;1.00;;;21.60;44.90;;;;;;5004231;28;20030;-70
2021/03/09 06:45:13;;;;;;;1.42;0.90;;;21.70;44.90;;;;;;5009495;28;20090;-65
2021/03/09 06:47:47;;;;;;;1.85;1.00;;;21.80;44.90;;;;;;5009070;28;20143;-67
2021/03/09 06:50:14;;;;;;;1.77;1.10;;;21.90;44.70;;;;;;5010158;28;20017;-67
2021/03/09 06:52:41;;;;;;;1.85;1.00;;;22.00;44.70;;;;;;5012363;28;20037;-65
2021/03/09 06:55:12;;;;;;;1.75;0.90;;;22.10;44.60;;;;;;5007815;28;20444;-65
2021/03/09 06:57:39;;;;;;;1.77;1.10;;;22.20;44.60;;;;;;5011220;28;20030;-67
2021/03/09 07:00:10;;;;;;;2.03;1.00;;;22.30;44.40;;;;;;5008409;28;20041;-66
2021/03/09 07:02:37;;;;;;;1.45;1.00;;;22.30;44.70;;;;;;5012459;28;20045;-64
2021/03/09 07:05:04;;;;;;;2.58;1.05;;;22.40;44.00;;;;;;5009028;28;20064;-66
2021/03/09 07:07:29;;;;;;;1.35;0.90;;;22.50;44.00;;;;;;5010485;28;20203;-66
2021/03/09 07:09:59;;;;;;;1.60;0.98;;;22.60;43.90;;;;;;5006367;28;20420;-67
2021/03/09 07:12:26;;;;;;;0.85;0.77;;;22.70;43.70;;;;;;5001815;28;20037;-67
2021/03/09 07:14:53;;;;;;;1.90;0.90;;;22.80;43.60;;;;;;5007188;28;20428;-64
2021/03/09 07:17:24;;;;;;;1.95;1.02;;;22.80;43.50;;;;;;5008692;28;20030;-65
2021/03/09 07:19:51;;;;;;;1.50;1.00;;;22.90;43.40;;;;;;5009005;28;20061;-65
2021/03/09 07:22:19;;;;;;;1.40;1.00;;;23.00;43.30;;;;;;5006717;28;20034;-64
2021/03/09 07:25:02;;;;;;;1.55;0.98;;;23.00;43.00;;;;;;5005908;28;20033;-65
2021/03/09 07:27:50;;;;;;;1.65;1.02;;;23.00;43.00;;;;;;5006628;28;20507;-67
2021/03/09 07:30:18;;;;;;;1.42;1.00;;;23.00;43.00;;;;;;5001920;28;20026;-67
2021/03/09 07:32:47;;;;;;;2.38;1.08;;;23.00;43.00;;;;;;5006984;28;20018;-69
2021/03/09 07:35:14;;;;;;;1.77;1.00;;;23.00;42.90;;;;;;5009333;28;20042;-70
2021/03/09 07:37:41;;;;;;;1.50;1.00;;;23.00;43.10;;;;;;5012740;28;20038;-70
2021/03/09 07:40:12;;;;;;;1.67;1.00;;;23.10;43.30;;;;;;5009074;28;20073;-67
2021/03/09 07:42:38;;;;;;;1.88;1.10;;;23.10;42.90;;;;;;5007299;28;20061;-67
2021/03/09 07:45:08;;;;;;;2.03;0.90;;;23.20;42.90;;;;;;5008181;28;20117;-65
2021/03/09 07:47:35;;;;;;;1.70;0.90;;;23.10;42.90;;;;;;5008398;28;20055;-66
2021/03/09 07:50:01;;;;;;;1.65;1.08;;;23.20;43.50;;;;;;5002464;28;20081;-66
2021/03/09 07:52:27;;;;;;;1.75;1.00;;;23.20;43.10;;;;;;5003472;28;20025;-70
2021/03/09 07:55:01;;;;;;;2.58;1.00;;;23.20;43.20;;;;;;5001371;28;20481;-71
2021/03/09 07:57:28;;;;;;;1.25;0.90;;;23.30;42.90;;;;;;5006187;28;20038;-67
2021/03/09 08:00:20;;;;;;;1.30;0.90;;;23.40;42.80;;;;;;5006262;28;20042;-65
2021/03/09 08:02:54;;;;;;;1.50;0.93;;;23.40;43.30;;;;;;4999868;28;20034;-66
2021/03/09 08:05:28;;;;;;;1.95;1.05;;;23.40;42.80;;;;;;5003288;28;20026;-70
2021/03/09 08:07:59;;;;;;;1.90;1.10;;;23.40;42.80;;;;;;5003675;28;20026;-71
2021/03/09 08:10:34;;;;;;;1.67;0.98;;;23.40;43.00;;;;;;4998079;28;20033;-71
2021/03/09 08:13:08;;;;;;;1.70;1.00;;;23.60;42.70;;;;;;4997240;28;20054;-71
2021/03/09 08:15:41;;;;;;;2.58;1.00;;;23.60;42.60;;;;;;5007021;28;20041;-69
2021/03/09 08:18:19;;;;;;;1.75;1.15;;;23.60;42.50;;;;;;5003318;28;20453;-70
2021/03/09 08:20:56;;;;;;;1.70;1.10;;;23.60;42.60;;;;;;5006060;28;20021;-67
2021/03/09 08:23:33;;;;;;;1.70;1.20;;;23.60;42.60;;;;;;5007552;28;20041;-70
2021/03/09 08:26:21;;;;;;;1.20;0.80;;;23.60;42.70;;;;;;5007121;28;20048;-71
2021/03/09 08:28:47;;;;;;;1.65;1.00;;;23.70;42.50;;;;;;5006650;28;20434;-73
2021/03/09 08:31:13;;;;;;;1.65;1.00;;;23.70;42.40;;;;;;5006905;28;20041;-66
2021/03/09 08:33:46;;;;;;;1.35;0.90;;;23.70;42.40;;;;;;5003844;28;20041;-64
2021/03/09 08:39:02;;;;;;;1.33;0.90;;;23.70;42.60;;;;;;5007615;28;20041;-67
2021/03/09 08:41:28;;;;;;;1.27;0.90;;;23.70;42.40;;;;;;5005435;28;20033;-68
2021/03/09 08:44:21;;;;;;;1.20;0.85;;;23.70;42.50;;;;;;5006192;28;20690;-68
2021/03/09 08:47:06;;;;;;;1.52;0.88;;;23.70;42.40;;;;;;5005584;28;20065;-70
2021/03/09 08:49:40;;;;;;;1.77;1.00;;;23.70;42.40;;;;;;5005250;28;20022;-73
2021/03/09 08:52:18;;;;;;;1.10;0.80;;;23.80;42.50;;;;;;4996315;28;20104;-72
2021/03/09 08:54:46;;;;;;;1.60;0.90;;;23.70;42.40;;;;;;5007470;28;20607;-66
2021/03/09 08:57:13;;;;;;;1.30;0.93;;;23.80;42.40;;;;;;5005948;28;20292;-70
2021/03/09 08:59:40;;;;;;;1.45;0.90;;;23.80;42.40;;;;;;5006899;28;20164;-69
2021/03/09 09:02:11;;;;;;;1.88;1.00;;;23.80;42.50;;;;;;5006495;28;20057;-70
2021/03/09 09:04:39;;;;;;;1.88;1.05;;;23.80;42.40;;;;;;5006637;28;20033;-71
2021/03/09 09:07:24;;;;;;;1.63;1.00;;;23.80;42.40;;;;;;5007815;28;20026;-70
2021/03/09 09:10:10;;;;;;;1.63;1.08;;;23.80;42.30;;;;;;5005277;28;20025;-72
2021/03/09 09:12:41;;;;;;;1.38;1.00;;;23.90;42.30;;;;;;5005362;28;20032;-69
2021/03/09 09:15:24;;;;;;;2.10;1.00;;;23.90;42.30;;;;;;5004944;28;20033;-70
2021/03/09 09:18:22;;;;;;;1.38;0.90;;;23.90;42.30;;;;;;5005628;28;20053;-70
2021/03/09 09:20:49;;;;;;;1.88;0.90;;;23.90;42.30;;;;;;4979644;28;20105;-71
2021/03/09 09:23:20;;;;;;;1.20;0.90;;;23.90;42.30;;;;;;5007998;28;20036;-70
2021/03/09 09:25:48;;;;;;;1.63;1.00;;;23.90;42.30;;;;;;5009336;28;20522;-69
2021/03/09 09:28:34;;;;;;;1.40;0.90;;;23.90;42.90;;;;;;5005427;28;20041;-70
2021/03/09 09:31:03;;;;;;;1.45;0.93;;;23.90;42.30;;;;;;4995324;28;20459;-69
2021/03/09 09:33:30;;;;;;;1.63;1.02;;;23.90;42.30;;;;;;5010020;28;20112;-71
2021/03/09 09:35:56;;;;;;;2.08;1.10;;;23.90;42.30;;;;;;5009642;28;20025;-70
2021/03/09 09:38:22;;;;;;;1.88;1.15;;;23.90;42.30;;;;;;5000543;28;20052;-70
2021/03/09 09:40:57;;;;;;;1.50;0.90;;;23.90;42.30;;;;;;5007844;28;20021;-71
2021/03/09 09:43:26;;;;;;;1.40;0.90;;;23.90;42.30;;;;;;5007656;28;20053;-68
2021/03/09 09:45:53;;;;;;;1.40;0.93;;;23.90;42.30;;;;;;5003811;28;20081;-68
2021/03/09 09:48:21;;;;;;;1.27;0.90;;;23.90;42.30;;;;;;5011723;28;20142;-69
2021/03/09 09:50:49;;;;;;;1.20;0.90;;;23.90;42.80;;;;;;4995432;28;20025;-70
2021/03/09 09:53:38;;;;;;;1.40;1.00;;;23.90;42.30;;;;;;5010243;28;20030;-72
2021/03/09 09:56:09;;;;;;;1.23;0.88;;;23.90;42.30;;;;;;5004693;28;20037;-67
2021/03/09 09:58:57;;;;;;;1.63;1.00;;;24.00;42.30;;;;;;5000804;28;20034;-72
2021/03/09 10:01:32;;;;;;;1.88;1.10;;;24.00;42.30;;;;;;5000465;28;20046;-68
2021/03/09 10:04:00;;;;;;;1.23;0.90;;;23.90;42.30;;;;;;5020599;28;20026;-70
2021/03/09 10:06:27;;;;;;;2.40;1.10;;;24.00;42.30;;;;;;5006902;28;20440;-69
2021/03/09 10:08:54;;;;;;;1.75;1.00;;;24.00;42.30;;;;;;5006572;28;20105;-69
2021/03/09 10:11:21;;;;;;;1.38;0.93;;;24.00;42.30;;;;;;5023337;28;20053;-70
2021/03/09 10:13:47;;;;;;;1.88;1.00;;;24.00;42.30;;;;;;5008521;28;20469;-71
2021/03/09 10:16:12;;;;;;;1.30;0.90;;;24.00;42.40;;;;;;5004123;28;20022;-69
2021/03/09 10:18:39;;;;;;;1.98;1.00;;;24.00;42.30;;;;;;4998568;28;20163;-70
2021/03/09 10:21:15;;;;;;;2.00;1.10;;;24.00;42.80;;;;;;5004153;28;20071;-73
2021/03/09 10:23:57;;;;;;;1.27;0.90;;;24.00;42.40;;;;;;5023069;28;20044;-69
2021/03/09 10:26:37;;;;;;;1.25;0.90;;;24.00;42.40;;;;;;5002115;28;20141;-71
2021/03/09 10:29:12;;;;;;;1.40;1.00;;;24.00;42.40;;;;;;4991930;28;20089;-70
2021/03/09 10:31:50;;;;;;;1.90;1.23;;;24.00;42.40;;;;;;5005766;28;20038;-72
2021/03/09 10:34:18;;;;;;;2.38;1.10;;;24.00;42.30;;;;;;5007806;28;20165;-71
2021/03/09 10:36:51;;;;;;;1.13;0.90;;;24.00;42.30;;;;;;5010582;28;20030;-70
2021/03/09 10:39:16;;;;;;;1.70;1.00;;;24.00;42.30;;;;;;5003338;28;20029;-67
2021/03/09 10:41:42;;;;;;;1.35;1.00;;;24.00;42.30;;;;;;5006064;28;20018;-68
2021/03/09 10:44:35;;;;;;;1.30;0.90;;;24.10;42.40;;;;;;5006503;28;20119;-68
2021/03/09 10:47:03;;;;;;;2.03;1.00;;;24.10;42.50;;;;;;5009023;28;20057;-68
2021/03/09 10:49:29;;;;;;;2.22;1.20;;;24.10;42.40;;;;;;5007165;28;20026;-69
2021/03/09 10:52:03;;;;;;;2.17;1.08;;;24.10;42.40;;;;;;5009328;28;20582;-68
2021/03/09 10:54:29;;;;;;;1.55;0.90;;;24.10;42.40;;;;;;5007903;28;20034;-70
2021/03/09 10:56:54;;;;;;;1.48;0.90;;;24.10;42.40;;;;;;5009943;28;20030;-68
2021/03/09 10:59:20;;;;;;;1.88;0.98;;;24.10;42.40;;;;;;5002544;28;20025;-70
2021/03/09 11:01:46;;;;;;;1.83;1.20;;;24.10;42.40;;;;;;5006017;28;20039;-70
2021/03/09 11:04:12;;;;;;;0.98;0.80;;;24.10;42.40;;;;;;5000864;28;20137;-71
2021/03/09 11:06:37;;;;;;;2.58;1.17;;;24.10;42.40;;;;;;5006881;28;20036;-70
2021/03/09 11:09:03;;;;;;;1.15;0.90;;;24.10;42.40;;;;;;5005386;28;20022;-69
2021/03/09 11:11:29;;;;;;;1.90;0.90;;;24.10;42.40;;;;;;5008704;28;20718;-70
2021/03/09 11:13:55;;;;;;;1.17;0.95;;;24.10;42.90;;;;;;4997473;28;20030;-68
2021/03/09 11:16:20;;;;;;;1.52;0.93;;;24.10;42.40;;;;;;5009482;28;20386;-67
2021/03/09 11:18:46;;;;;;;1.65;1.00;;;24.10;42.40;;;;;;5009029;28;20388;-69
2021/03/09 11:21:12;;;;;;;1.42;1.00;;;24.10;42.90;;;;;;5007481;28;20056;-70
2021/03/09 11:23:39;;;;;;;1.00;0.82;;;24.10;42.40;;;;;;5009143;28;20450;-68
2021/03/09 11:26:06;;;;;;;1.55;1.05;;;24.10;42.40;;;;;;5005200;28;20029;-68
2021/03/09 11:28:34;;;;;;;1.45;0.95;;;24.10;42.40;;;;;;5007440;28;20639;-70
2021/03/09 11:31:01;;;;;;;1.55;1.10;;;24.10;42.40;;;;;;4994726;28;20034;-71
2021/03/09 11:33:26;;;;;;;1.40;1.00;;;24.10;42.40;;;;;;4999174;28;20098;-69
2021/03/09 11:35:52;;;;;;;1.70;1.00;;;24.10;42.40;;;;;;5008313;28;20121;-71
2021/03/09 11:38:20;;;;;;;2.63;1.10;;;24.10;42.40;;;;;;5006615;28;20580;-72
2021/03/09 11:40:45;;;;;;;1.27;0.90;;;24.20;43.00;;;;;;4999524;28;20037;-69
2021/03/09 11:43:11;;;;;;;1.63;1.00;;;24.10;42.40;;;;;;5008671;28;20038;-67
2021/03/09 11:45:37;;;;;;;1.30;0.90;;;24.20;42.40;;;;;;5006915;28;20058;-66
2021/03/09 11:48:03;;;;;;;1.85;1.00;;;24.20;42.50;;;;;;5005813;28;20033;-68
2021/03/09 11:50:28;;;;;;;1.20;0.90;;;24.20;42.40;;;;;;5003829;28;20906;-66
2021/03/09 11:52:54;;;;;;;1.60;1.00;;;24.20;42.40;;;;;;4997206;28;20030;-63
2021/03/09 11:55:19;;;;;;;2.28;1.20;;;24.20;42.50;;;;;;5006473;28;20136;-64
2021/03/09 11:57:45;;;;;;;1.98;1.10;;;24.20;42.50;;;;;;5004464;28;20044;-63
2021/03/09 12:00:11;;;;;;;1.70;0.93;;;24.20;42.40;;;;;;5005296;28;20034;-63
2021/03/09 12:02:37;;;;;;;3.17;1.20;;;24.20;42.30;;;;;;5002148;28;20101;-64
2021/03/09 12:05:04;;;;;;;1.70;1.20;;;24.20;42.20;;;;;;4996899;28;20026;-65
2021/03/09 12:07:30;;;;;;;1.95;1.05;;;24.20;42.10;;;;;;5007039;28;20033;-63
2021/03/09 12:09:55;;;;;;;1.90;1.10;;;24.20;42.10;;;;;;5001972;28;20113;-63
2021/03/09 12:12:21;;;;;;;1.88;1.23;;;24.20;42.10;;;;;;5001622;28;20124;-63
2021/03/09 12:14:47;;;;;;;1.85;1.10;;;24.20;42.10;;;;;;5001942;28;20034;-64
2021/03/09 12:17:12;;;;;;;1.73;1.10;;;24.20;42.10;;;;;;5007275;28;20045;-64
2021/03/09 12:19:38;;;;;;;1.75;1.10;;;24.20;42.60;;;;;;5007554;28;20375;-64
2021/03/09 12:22:03;;;;;;;1.73;1.13;;;24.20;42.10;;;;;;5008279;28;20057;-63
2021/03/09 12:24:29;;;;;;;2.05;1.10;;;24.10;42.00;;;;;;5001525;28;20033;-65
2021/03/09 12:26:55;;;;;;;1.45;1.00;;;24.20;42.10;;;;;;4991299;28;20029;-62
2021/03/09 12:29:21;;;;;;;1.40;1.00;;;24.20;42.10;;;;;;5005359;28;20137;-64
2021/03/09 12:31:46;;;;;;;2.10;1.20;;;24.10;42.00;;;;;;5007692;28;20030;-63
2021/03/09 12:34:12;;;;;;;1.77;1.10;;;24.20;42.10;;;;;;5004316;28;20068;-63
2021/03/09 12:36:37;;;;;;;1.60;0.90;;;24.20;42.10;;;;;;5007155;28;20063;-65
2021/03/09 12:39:03;;;;;;;1.23;1.00;;;24.20;42.70;;;;;;5002818;28;20053;-63
2021/03/09 12:41:29;;;;;;;2.15;1.00;;;24.20;42.20;;;;;;5021308;28;20034;-63
2021/03/09 12:43:54;;;;;;;1.58;1.00;;;24.20;42.20;;;;;;5003126;28;20137;-63
2021/03/09 12:46:20;;;;;;;1.42;1.00;;;24.20;42.30;;;;;;5006521;28;20034;-64
2021/03/09 12:48:46;;;;;;;1.60;1.10;;;24.20;42.30;;;;;;5005509;28;20057;-63
2021/03/09 12:51:12;;;;;;;1.48;1.00;;;24.20;42.30;;;;;;5007970;28;20025;-64
2021/03/09 12:53:38;;;;;;;1.50;0.90;;;24.20;42.30;;;;;;5008615;28;20456;-63
2021/03/09 12:56:04;;;;;;;1.40;0.90;;;24.20;42.30;;;;;;5010120;28;20061;-63
2021/03/09 12:58:30;;;;;;;1.80;0.98;;;24.20;42.30;;;;;;5010082;28;20033;-66